Weather at Wonderboom Airport

Public forecast

Using degrees Celsius for public forecast. Weather courtesy of forecast.io.

Current aviation weather report (METAR) for Wonderboom Airport

Retrieved 2021/09/28 16:00 UTC (1 hour ago):

FAWB 281600Z 12012G25KT 9999 SCT035 24/08 Q1015

Aviation forecast (TAF) for Wonderboom Airport

Forecast is more than 12 hours old.

Retrieved 2021/05/05 07:00 UTC (5 months ago):

TAF FAWB 050608Z 0507/0518 VRB03KT CAVOK TX24/0512Z TN15/0518Z